Time;durP1;ratioP1;P1;durP2;ratioP2;P2;SDS_P1;SDS_P2;PMS_P1;PMS_P2;Temp;Humidity;BMP_temperature;BMP_pressure;BME280_temperature;BME280_humidity;BME280_pressure;Samples;Min_cycle;Max_cycle;Signal;HPM_P1;HPM_P2
2021/05/23 00:00:42;;;;;;;1.00;0.90;;;14.10;63.20;;;;;;1479474;40;20040;-69
2021/05/23 00:02:04;;;;;;;1.10;1.10;;;14.10;63.20;;;;;;1480066;40;20067;-69
2021/05/23 00:03:25;;;;;;;1.02;0.90;;;14.20;63.20;;;;;;1483407;40;20019;-70
2021/05/23 00:04:46;;;;;;;1.15;1.10;;;14.20;63.30;;;;;;1481126;40;20044;-70
2021/05/23 00:06:07;;;;;;;1.33;1.05;;;14.20;63.40;;;;;;1479878;40;20049;-70
2021/05/23 00:07:32;;;;;;;2.05;1.23;;;14.20;63.40;;;;;;1478335;40;20122;-69
2021/05/23 00:08:52;;;;;;;2.72;1.23;;;14.20;63.50;;;;;;1479017;40;20033;-70
2021/05/23 00:10:14;;;;;;;3.50;1.23;;;14.20;63.40;;;;;;1481355;40;20044;-70
2021/05/23 00:11:34;;;;;;;1.02;0.77;;;14.20;63.40;;;;;;1478256;40;20036;-70
2021/05/23 00:12:58;;;;;;;1.48;1.20;;;14.20;63.50;;;;;;1480357;40;20044;-69
2021/05/23 00:14:20;;;;;;;1.40;1.17;;;14.20;63.50;;;;;;1482662;40;20037;-68
2021/05/23 00:16:03;;;;;;;1.58;1.10;;;14.20;63.50;;;;;;1480002;40;20360;-69
2021/05/23 00:17:24;;;;;;;1.13;0.90;;;14.20;63.50;;;;;;1477062;40;20029;-70
2021/05/23 00:18:48;;;;;;;1.23;1.00;;;14.20;63.30;;;;;;1482113;40;20052;-70
2021/05/23 00:20:11;;;;;;;1.00;0.90;;;14.20;63.40;;;;;;1481995;40;20049;-69
2021/05/23 00:21:32;;;;;;;1.65;1.10;;;14.20;63.30;;;;;;1478007;40;20037;-70
2021/05/23 00:22:53;;;;;;;2.95;1.30;;;14.20;63.40;;;;;;1477295;40;20159;-69
2021/05/23 00:24:14;;;;;;;3.80;1.27;;;14.20;63.50;;;;;;1481141;40;20028;-69
2021/05/23 00:25:36;;;;;;;1.20;1.10;;;14.20;63.50;;;;;;1481905;40;20117;-69
2021/05/23 00:26:57;;;;;;;0.90;0.90;;;14.20;63.50;;;;;;1481240;40;20037;-69
2021/05/23 00:28:18;;;;;;;1.20;0.95;;;14.20;63.40;;;;;;1481686;40;20106;-69
2021/05/23 00:29:39;;;;;;;2.55;1.23;;;14.20;63.40;;;;;;1479076;40;20056;-69
2021/05/23 00:31:00;;;;;;;1.30;1.20;;;14.20;63.30;;;;;;1479949;40;20041;-69
2021/05/23 00:32:21;;;;;;;1.35;1.25;;;14.20;63.30;;;;;;1480418;40;20040;-69
2021/05/23 00:33:42;;;;;;;2.17;1.20;;;14.20;63.40;;;;;;1483440;40;20029;-69
2021/05/23 00:35:03;;;;;;;1.23;1.13;;;14.10;63.40;;;;;;1481980;40;20051;-70
2021/05/23 00:36:25;;;;;;;1.35;1.25;;;14.20;63.50;;;;;;1483325;40;20028;-69
2021/05/23 00:37:45;;;;;;;1.20;1.15;;;14.20;63.40;;;;;;1482375;40;20021;-69
2021/05/23 00:39:07;;;;;;;2.33;1.58;;;14.20;63.40;;;;;;1480292;40;20040;-69
2021/05/23 00:40:27;;;;;;;1.27;1.17;;;14.20;63.50;;;;;;1481703;40;20036;-69
2021/05/23 00:41:48;;;;;;;1.35;1.25;;;14.20;63.50;;;;;;1482543;40;20025;-69
2021/05/23 00:43:13;;;;;;;2.25;1.50;;;14.20;63.40;;;;;;1479616;40;20065;-69
2021/05/23 00:44:33;;;;;;;1.40;1.30;;;14.10;63.30;;;;;;1482594;40;20032;-69
2021/05/23 00:45:54;;;;;;;1.65;1.13;;;14.20;63.30;;;;;;1481133;40;20033;-69
2021/05/23 00:47:15;;;;;;;2.47;1.10;;;14.20;63.50;;;;;;1478901;40;20028;-69
2021/05/23 00:48:36;;;;;;;1.75;1.35;;;14.20;63.60;;;;;;1483406;40;20031;-69
2021/05/23 00:49:57;;;;;;;1.42;1.10;;;14.10;63.50;;;;;;1483235;40;20029;-69
2021/05/23 00:51:18;;;;;;;1.70;1.20;;;14.20;63.50;;;;;;1485194;40;20036;-69
2021/05/23 00:52:39;;;;;;;1.30;1.20;;;14.10;63.40;;;;;;1483649;40;20065;-70
2021/05/23 00:54:00;;;;;;;1.60;1.30;;;14.10;63.40;;;;;;1483308;40;20083;-70
2021/05/23 00:55:23;;;;;;;3.88;1.35;;;14.10;63.40;;;;;;1483564;40;20036;-69
2021/05/23 00:56:44;;;;;;;1.23;1.10;;;14.10;63.40;;;;;;1482841;40;20057;-70
2021/05/23 00:58:07;;;;;;;1.30;1.20;;;14.10;63.30;;;;;;1482954;40;20068;-70
2021/05/23 00:59:28;;;;;;;1.27;1.10;;;14.20;63.40;;;;;;1484356;40;20027;-69
2021/05/23 01:00:55;;;;;;;1.10;1.05;;;14.10;63.20;;;;;;1479169;40;20524;-69
2021/05/23 01:02:39;;;;;;;2.15;1.25;;;14.10;63.40;;;;;;1482026;40;20074;-69
2021/05/23 01:04:00;;;;;;;1.25;1.10;;;14.10;63.40;;;;;;1481409;40;20041;-69
2021/05/23 01:05:21;;;;;;;1.63;1.40;;;14.20;63.20;;;;;;1480140;40;20033;-69
2021/05/23 01:06:42;;;;;;;2.00;1.45;;;14.10;63.20;;;;;;1483927;40;20036;-69
2021/05/23 01:08:03;;;;;;;2.90;1.38;;;14.10;63.30;;;;;;1480966;40;20294;-69
2021/05/23 01:09:24;;;;;;;1.50;1.40;;;14.20;63.30;;;;;;1478412;40;20040;-67
2021/05/23 01:11:03;;;;;;;2.97;1.40;;;14.10;63.20;;;;;;1480346;40;20032;-67
2021/05/23 01:12:27;;;;;;;2.17;1.25;;;14.10;63.30;;;;;;1477478;40;20041;-68
2021/05/23 01:14:14;;;;;;;1.17;1.17;;;14.10;63.20;;;;;;1481029;40;20042;-67
2021/05/23 01:15:47;;;;;;;2.00;1.40;;;14.10;63.70;;;;;;1474044;40;20411;-67
2021/05/23 01:17:11;;;;;;;1.15;1.05;;;14.10;63.60;;;;;;1477989;40;20029;-68
2021/05/23 01:18:39;;;;;;;2.58;1.30;;;14.10;63.40;;;;;;1479874;40;20021;-68
2021/05/23 01:20:08;;;;;;;1.40;1.30;;;14.10;63.40;;;;;;1480015;40;20021;-68
2021/05/23 01:21:35;;;;;;;2.13;1.40;;;14.10;63.50;;;;;;1479879;40;20033;-68
2021/05/23 01:23:19;;;;;;;2.80;1.20;;;14.10;63.50;;;;;;1478707;40;20268;-68
2021/05/23 01:25:04;;;;;;;1.33;1.23;;;14.10;63.70;;;;;;1479261;40;20033;-68
2021/05/23 01:26:29;;;;;;;2.90;1.40;;;14.00;63.80;;;;;;1480019;40;20040;-68
2021/05/23 01:27:52;;;;;;;1.80;1.40;;;14.00;63.60;;;;;;1479575;40;20032;-68
2021/05/23 01:29:13;;;;;;;2.05;1.17;;;14.00;63.80;;;;;;1478158;40;20053;-68
2021/05/23 01:30:41;;;;;;;2.50;1.50;;;14.00;63.90;;;;;;1479093;40;20044;-68
2021/05/23 01:32:02;;;;;;;3.13;1.60;;;14.00;64.10;;;;;;1479347;40;20033;-68
2021/05/23 01:33:24;;;;;;;2.65;1.30;;;14.00;64.20;;;;;;1479843;40;20028;-68
2021/05/23 01:34:45;;;;;;;2.65;1.50;;;13.90;64.20;;;;;;1480894;40;20033;-68
2021/05/23 01:36:07;;;;;;;1.50;1.38;;;13.90;64.20;;;;;;1478941;40;20378;-68
2021/05/23 01:37:31;;;;;;;3.17;1.52;;;13.90;64.40;;;;;;1479179;40;20029;-68
2021/05/23 01:38:53;;;;;;;2.80;1.25;;;13.90;64.50;;;;;;1479430;40;20051;-68
2021/05/23 01:40:16;;;;;;;1.50;1.23;;;13.90;64.50;;;;;;1478940;40;20041;-68
2021/05/23 01:41:39;;;;;;;2.72;1.40;;;13.90;64.70;;;;;;1478229;40;20037;-69
2021/05/23 01:43:00;;;;;;;1.70;1.60;;;13.90;64.90;;;;;;1480308;40;20037;-68
2021/05/23 01:44:22;;;;;;;2.30;1.40;;;13.90;65.00;;;;;;1478647;40;20021;-68
2021/05/23 01:45:43;;;;;;;1.30;1.20;;;13.90;64.90;;;;;;1479963;40;20028;-68
2021/05/23 01:47:04;;;;;;;2.08;1.40;;;13.90;65.00;;;;;;1478506;40;20044;-68
2021/05/23 01:48:25;;;;;;;2.15;1.50;;;13.90;65.10;;;;;;1480354;40;20072;-67
2021/05/23 01:49:46;;;;;;;4.03;1.40;;;13.90;65.30;;;;;;1480930;40;20036;-69
2021/05/23 01:51:08;;;;;;;1.88;1.48;;;13.90;65.40;;;;;;1482117;40;20021;-69
2021/05/23 01:52:29;;;;;;;1.50;1.40;;;13.90;65.40;;;;;;1480591;40;20086;-69
2021/05/23 01:53:50;;;;;;;2.00;1.50;;;13.90;65.50;;;;;;1478785;40;20029;-70
2021/05/23 01:55:12;;;;;;;2.47;1.70;;;13.90;65.60;;;;;;1479186;40;20235;-69
2021/05/23 01:56:33;;;;;;;2.50;1.77;;;13.80;65.70;;;;;;1481285;40;20056;-69
2021/05/23 01:57:54;;;;;;;5.35;2.10;;;13.80;65.80;;;;;;1480646;40;20043;-71
2021/05/23 01:59:15;;;;;;;3.78;1.70;;;13.80;66.10;;;;;;1480688;40;20121;-70
2021/05/23 02:00:47;;;;;;;2.20;1.60;;;13.90;66.00;;;;;;1479415;40;20040;-71
2021/05/23 02:02:08;;;;;;;3.30;1.90;;;13.80;66.10;;;;;;1477968;40;20053;-72
2021/05/23 02:03:29;;;;;;;1.95;1.77;;;13.80;66.00;;;;;;1479199;40;20025;-70
2021/05/23 02:04:50;;;;;;;2.55;1.40;;;13.80;66.00;;;;;;1482783;40;20023;-71
2021/05/23 02:06:11;;;;;;;3.50;1.60;;;13.80;66.10;;;;;;1480597;40;20033;-69
2021/05/23 02:07:33;;;;;;;2.47;1.77;;;13.80;66.10;;;;;;1479071;40;20021;-69
2021/05/23 02:08:55;;;;;;;1.95;1.60;;;13.80;66.10;;;;;;1479573;40;20068;-70
2021/05/23 02:10:18;;;;;;;2.25;1.75;;;13.80;66.20;;;;;;1481345;40;20029;-70
2021/05/23 02:11:39;;;;;;;1.92;1.83;;;13.80;66.30;;;;;;1478117;40;20124;-70
2021/05/23 02:13:01;;;;;;;1.92;1.80;;;13.80;66.30;;;;;;1479056;40;20044;-71
2021/05/23 02:14:23;;;;;;;1.77;1.65;;;13.80;66.60;;;;;;1479940;40;20346;-70
2021/05/23 02:15:45;;;;;;;2.33;1.77;;;13.80;66.50;;;;;;1477094;40;20037;-70
2021/05/23 02:17:06;;;;;;;2.40;2.00;;;13.80;66.50;;;;;;1476469;40;20043;-69
2021/05/23 02:18:29;;;;;;;2.40;2.20;;;13.70;66.70;;;;;;1479184;40;20064;-71
2021/05/23 02:19:50;;;;;;;2.10;1.90;;;13.70;66.90;;;;;;1481010;40;20052;-70
2021/05/23 02:21:14;;;;;;;1.92;1.73;;;13.70;66.80;;;;;;1479106;40;20033;-70
2021/05/23 02:22:42;;;;;;;1.98;1.88;;;13.70;66.90;;;;;;1479636;40;20037;-70
2021/05/23 02:24:04;;;;;;;2.15;1.95;;;13.70;67.00;;;;;;1479532;40;20085;-70
2021/05/23 02:25:27;;;;;;;2.08;1.90;;;13.70;66.90;;;;;;1480871;40;20024;-70
2021/05/23 02:26:48;;;;;;;1.80;1.70;;;13.70;67.00;;;;;;1480916;40;20460;-70
2021/05/23 02:28:10;;;;;;;3.03;1.83;;;13.70;67.00;;;;;;1480737;40;20368;-70
2021/05/23 02:29:32;;;;;;;1.83;1.73;;;13.70;67.10;;;;;;1481214;40;20046;-70
2021/05/23 02:30:55;;;;;;;2.20;2.00;;;13.70;67.30;;;;;;1480144;40;20044;-69
2021/05/23 02:32:16;;;;;;;2.10;1.80;;;13.70;67.40;;;;;;1478511;40;20041;-70
2021/05/23 02:33:37;;;;;;;1.92;1.83;;;13.70;67.30;;;;;;1481687;40;20044;-70
2021/05/23 02:34:58;;;;;;;1.90;1.80;;;13.70;67.60;;;;;;1478688;40;20075;-70
2021/05/23 02:36:19;;;;;;;2.17;1.77;;;13.70;67.50;;;;;;1480140;40;20032;-70
2021/05/23 02:37:40;;;;;;;2.20;2.10;;;13.70;67.60;;;;;;1479110;40;20044;-69
2021/05/23 02:39:02;;;;;;;2.58;2.10;;;13.70;67.60;;;;;;1480228;40;20156;-69
2021/05/23 02:40:27;;;;;;;2.30;1.90;;;13.70;67.70;;;;;;1479488;40;20040;-69
2021/05/23 02:41:48;;;;;;;2.10;2.00;;;13.70;67.80;;;;;;1481583;40;20119;-69
2021/05/23 02:43:10;;;;;;;3.20;2.38;;;13.70;67.70;;;;;;1481460;40;20285;-69
2021/05/23 02:44:31;;;;;;;1.83;1.73;;;13.70;67.70;;;;;;1479408;40;20033;-69
2021/05/23 02:45:52;;;;;;;2.45;2.28;;;13.70;67.70;;;;;;1480099;40;20029;-69
2021/05/23 02:47:13;;;;;;;2.58;2.38;;;13.70;67.70;;;;;;1479757;40;20051;-69
2021/05/23 02:48:34;;;;;;;2.88;2.67;;;13.70;67.80;;;;;;1482360;40;20564;-70
2021/05/23 02:49:55;;;;;;;2.50;2.30;;;13.70;67.80;;;;;;1481077;40;20028;-69
2021/05/23 02:51:16;;;;;;;2.97;2.78;;;13.70;67.90;;;;;;1480028;40;20349;-68
2021/05/23 02:52:37;;;;;;;2.80;2.60;;;13.70;67.90;;;;;;1480783;40;20025;-68
2021/05/23 02:53:58;;;;;;;3.33;2.60;;;13.70;67.90;;;;;;1481239;40;20072;-68
2021/05/23 02:55:20;;;;;;;2.67;2.47;;;13.70;68.60;;;;;;1480338;40;20033;-68
2021/05/23 02:56:41;;;;;;;2.88;2.67;;;13.70;68.00;;;;;;1482071;40;20135;-68
2021/05/23 02:58:03;;;;;;;2.78;2.58;;;13.70;68.10;;;;;;1478579;40;20567;-68
2021/05/23 02:59:24;;;;;;;3.20;3.00;;;13.70;68.10;;;;;;1477572;40;20033;-70
2021/05/23 03:00:46;;;;;;;3.30;3.05;;;13.70;68.10;;;;;;1479449;40;20045;-70
2021/05/23 03:02:07;;;;;;;5.28;3.17;;;13.70;68.20;;;;;;1476744;40;20399;-69
2021/05/23 03:03:28;;;;;;;3.15;2.90;;;13.80;68.30;;;;;;1481018;40;20372;-70
2021/05/23 03:04:49;;;;;;;3.03;2.83;;;13.70;68.30;;;;;;1481652;40;20036;-70
2021/05/23 03:06:10;;;;;;;2.92;2.72;;;13.80;68.30;;;;;;1482205;40;20538;-69
2021/05/23 03:07:37;;;;;;;3.83;3.30;;;13.80;68.40;;;;;;1478302;40;20036;-70
2021/05/23 03:08:58;;;;;;;3.22;2.95;;;13.80;68.70;;;;;;1481170;40;20416;-70
2021/05/23 03:10:25;;;;;;;3.60;3.30;;;13.80;68.40;;;;;;1479275;40;20041;-70
2021/05/23 03:11:46;;;;;;;3.60;3.25;;;13.80;68.40;;;;;;1483101;40;20055;-70
2021/05/23 03:13:09;;;;;;;4.05;3.20;;;13.80;68.20;;;;;;1479519;40;20290;-69
2021/05/23 03:14:30;;;;;;;3.95;3.65;;;13.80;68.30;;;;;;1478899;40;20033;-69
2021/05/23 03:15:51;;;;;;;3.47;3.17;;;13.80;68.50;;;;;;1479140;40;20286;-69
2021/05/23 03:17:12;;;;;;;4.18;3.42;;;13.80;68.30;;;;;;1477845;40;20487;-69
2021/05/23 03:18:33;;;;;;;3.60;3.30;;;13.80;68.30;;;;;;1481697;40;20088;-69
2021/05/23 03:19:54;;;;;;;3.92;3.35;;;13.80;68.40;;;;;;1478825;40;20033;-70
2021/05/23 03:21:15;;;;;;;3.53;3.22;;;13.80;68.40;;;;;;1481734;40;20110;-69
2021/05/23 03:22:37;;;;;;;3.40;3.20;;;13.80;68.40;;;;;;1479576;40;20493;-70
2021/05/23 03:23:58;;;;;;;4.28;3.35;;;13.80;68.40;;;;;;1481653;40;20058;-70
2021/05/23 03:25:19;;;;;;;5.60;3.88;;;13.80;68.40;;;;;;1480454;40;20558;-70
2021/05/23 03:26:40;;;;;;;5.00;3.50;;;13.80;68.50;;;;;;1481053;40;20043;-71
2021/05/23 03:28:03;;;;;;;4.70;4.30;;;13.80;68.40;;;;;;1478652;40;20033;-69
2021/05/23 03:29:24;;;;;;;4.45;4.13;;;13.80;68.50;;;;;;1479825;40;20099;-69
2021/05/23 03:30:45;;;;;;;4.30;3.90;;;13.80;68.70;;;;;;1480281;40;20025;-68
2021/05/23 03:32:06;;;;;;;4.22;3.92;;;13.80;68.60;;;;;;1478277;40;20037;-68
2021/05/23 03:33:27;;;;;;;4.50;4.10;;;13.80;68.50;;;;;;1482053;40;20039;-69
2021/05/23 03:34:47;;;;;;;4.60;4.20;;;13.80;68.50;;;;;;1479216;40;20270;-68
2021/05/23 03:36:08;;;;;;;4.90;4.35;;;13.80;68.50;;;;;;1481697;40;20113;-69
2021/05/23 03:37:29;;;;;;;4.72;4.30;;;13.80;68.60;;;;;;1481018;40;20077;-68
2021/05/23 03:38:50;;;;;;;5.47;4.82;;;13.80;68.60;;;;;;1481091;40;20089;-68
2021/05/23 03:40:15;;;;;;;5.55;4.07;;;13.80;68.60;;;;;;1479853;40;20029;-69
2021/05/23 03:41:35;;;;;;;4.82;4.43;;;13.80;68.50;;;;;;1481883;40;20361;-69
2021/05/23 03:42:56;;;;;;;4.45;4.05;;;13.80;68.50;;;;;;1478384;40;20037;-69
2021/05/23 03:44:17;;;;;;;5.47;4.63;;;13.80;68.50;;;;;;1481846;40;20052;-69
2021/05/23 03:45:38;;;;;;;6.38;4.70;;;13.80;68.60;;;;;;1478901;40;20051;-69
2021/05/23 03:46:59;;;;;;;5.50;4.75;;;13.80;68.70;;;;;;1481731;40;20120;-69
2021/05/23 03:48:20;;;;;;;5.07;4.57;;;13.80;68.70;;;;;;1481457;40;20041;-69
2021/05/23 03:49:41;;;;;;;4.78;4.38;;;13.80;68.70;;;;;;1480588;40;20036;-68
2021/05/23 03:51:02;;;;;;;4.93;4.43;;;13.80;68.80;;;;;;1481118;40;20048;-69
2021/05/23 03:52:23;;;;;;;4.80;4.35;;;13.80;68.70;;;;;;1480482;40;20080;-69
2021/05/23 03:53:44;;;;;;;8.07;4.47;;;13.80;68.70;;;;;;1479305;40;20037;-69
2021/05/23 03:55:06;;;;;;;5.97;5.10;;;13.80;68.70;;;;;;1479119;40;20270;-69
2021/05/23 03:56:27;;;;;;;4.88;4.38;;;13.80;68.70;;;;;;1482137;40;20065;-69
2021/05/23 03:57:48;;;;;;;4.60;4.13;;;13.80;68.70;;;;;;1477793;40;20036;-69
2021/05/23 03:59:09;;;;;;;5.05;4.28;;;13.90;68.80;;;;;;1480298;40;20042;-69
2021/05/23 04:00:30;;;;;;;5.85;4.88;;;13.90;68.70;;;;;;1480856;40;20033;-69
2021/05/23 04:01:51;;;;;;;6.18;5.10;;;13.80;68.70;;;;;;1480169;40;20040;-69
2021/05/23 04:03:12;;;;;;;6.00;5.50;;;13.80;68.80;;;;;;1479476;40;21836;-69
2021/05/23 04:04:52;;;;;;;4.88;4.47;;;13.80;68.80;;;;;;1478790;40;20709;-69
2021/05/23 04:06:13;;;;;;;5.50;4.75;;;13.90;68.70;;;;;;1480238;40;20039;-69
2021/05/23 04:07:34;;;;;;;6.18;5.32;;;13.90;68.70;;;;;;1481248;40;20044;-69
2021/05/23 04:08:55;;;;;;;5.97;5.35;;;13.90;68.60;;;;;;1481919;40;20251;-69
2021/05/23 04:10:18;;;;;;;5.72;4.95;;;13.90;68.70;;;;;;1480914;40;20331;-69
2021/05/23 04:11:42;;;;;;;6.05;5.38;;;13.90;68.70;;;;;;1477246;40;20522;-70
2021/05/23 04:13:05;;;;;;;6.68;5.20;;;13.90;68.60;;;;;;1477722;40;20080;-68
2021/05/23 04:14:26;;;;;;;6.25;4.95;;;13.80;68.60;;;;;;1480342;40;20289;-68
2021/05/23 04:15:47;;;;;;;7.15;5.78;;;13.90;68.70;;;;;;1482191;40;20033;-68
2021/05/23 04:17:08;;;;;;;7.50;5.53;;;13.90;68.90;;;;;;1477918;40;20370;-69
2021/05/23 04:18:29;;;;;;;6.80;5.45;;;13.90;68.90;;;;;;1479485;40;20040;-69
2021/05/23 04:19:50;;;;;;;5.85;5.05;;;13.90;68.80;;;;;;1478597;40;20453;-70
2021/05/23 04:21:11;;;;;;;7.05;5.50;;;13.90;68.90;;;;;;1479726;40;20108;-70
2021/05/23 04:22:32;;;;;;;5.32;4.82;;;13.90;68.90;;;;;;1479140;40;20398;-70
2021/05/23 04:23:53;;;;;;;7.75;5.75;;;13.90;68.80;;;;;;1481343;40;20033;-69
2021/05/23 04:25:15;;;;;;;6.97;5.35;;;13.90;68.80;;;;;;1481297;40;20048;-70
2021/05/23 04:26:36;;;;;;;7.10;5.15;;;13.90;68.90;;;;;;1477867;40;20021;-70
2021/05/23 04:27:57;;;;;;;6.47;5.63;;;13.90;68.90;;;;;;1480750;40;20353;-68
2021/05/23 04:29:18;;;;;;;5.43;4.93;;;13.80;69.10;;;;;;1481646;40;20017;-68
2021/05/23 04:30:39;;;;;;;7.88;5.38;;;13.90;69.10;;;;;;1479292;40;20044;-71
2021/05/23 04:32:01;;;;;;;6.03;5.35;;;13.90;68.90;;;;;;1478071;40;20081;-70
2021/05/23 04:33:23;;;;;;;5.45;4.95;;;13.80;68.80;;;;;;1479804;40;20029;-70
2021/05/23 04:34:44;;;;;;;5.97;5.45;;;13.80;69.00;;;;;;1480406;40;20044;-69
2021/05/23 04:36:05;;;;;;;6.18;5.43;;;13.80;68.80;;;;;;1482613;40;20043;-70
2021/05/23 04:37:27;;;;;;;6.20;4.70;;;13.80;68.90;;;;;;1480057;40;20121;-69
2021/05/23 04:38:49;;;;;;;8.20;5.47;;;13.80;68.80;;;;;;1481555;40;20459;-70
2021/05/23 04:40:11;;;;;;;5.68;5.18;;;13.80;68.80;;;;;;1480842;40;20039;-70
2021/05/23 04:41:33;;;;;;;6.97;5.55;;;13.80;69.00;;;;;;1478553;40;20033;-69
2021/05/23 04:42:54;;;;;;;8.27;5.85;;;13.80;69.00;;;;;;1478748;40;20125;-69
2021/05/23 04:44:15;;;;;;;5.47;4.97;;;13.80;69.10;;;;;;1481059;40;20024;-69
2021/05/23 04:45:37;;;;;;;5.22;4.82;;;13.80;69.20;;;;;;1479695;40;20043;-70
2021/05/23 04:46:58;;;;;;;5.43;4.90;;;13.80;69.10;;;;;;1481287;40;20048;-69
2021/05/23 04:48:19;;;;;;;6.20;4.85;;;13.80;69.50;;;;;;1482188;40;20280;-69
2021/05/23 04:49:40;;;;;;;4.63;4.22;;;13.80;69.30;;;;;;1477718;40;20110;-70
2021/05/23 04:51:01;;;;;;;5.65;5.13;;;13.80;69.10;;;;;;1478872;40;20498;-70
2021/05/23 04:52:22;;;;;;;7.82;4.85;;;13.80;69.30;;;;;;1480081;40;20048;-70
2021/05/23 04:53:43;;;;;;;7.30;4.55;;;13.80;69.10;;;;;;1479084;40;20069;-71
2021/05/23 04:55:06;;;;;;;7.03;4.97;;;13.80;69.00;;;;;;1479415;40;20033;-68
2021/05/23 04:56:27;;;;;;;6.88;4.53;;;13.80;69.00;;;;;;1477649;40;20045;-72
2021/05/23 04:57:48;;;;;;;5.15;4.10;;;13.80;68.80;;;;;;1477380;40;20036;-71
2021/05/23 04:59:09;;;;;;;4.57;3.53;;;13.80;68.80;;;;;;1481573;40;20130;-72
2021/05/23 05:00:30;;;;;;;6.57;4.35;;;13.80;68.80;;;;;;1477138;40;20071;-71
2021/05/23 05:01:51;;;;;;;5.05;4.13;;;13.80;68.80;;;;;;1480751;40;20035;-71
2021/05/23 05:03:11;;;;;;;4.25;3.08;;;13.80;68.70;;;;;;1480619;40;20024;-72
2021/05/23 05:04:32;;;;;;;4.35;2.83;;;13.80;68.60;;;;;;1479128;40;20772;-70
2021/05/23 05:05:53;;;;;;;4.65;3.17;;;13.80;68.40;;;;;;1478257;40;20033;-68
2021/05/23 05:07:15;;;;;;;6.75;3.25;;;13.80;68.30;;;;;;1481303;40;20032;-68
2021/05/23 05:08:36;;;;;;;4.97;2.92;;;13.80;68.10;;;;;;1479530;40;20060;-67
2021/05/23 05:09:57;;;;;;;4.68;2.83;;;13.80;68.00;;;;;;1479955;40;20031;-67
2021/05/23 05:11:18;;;;;;;3.20;2.05;;;13.80;67.70;;;;;;1479485;40;20053;-69
2021/05/23 05:12:39;;;;;;;3.72;2.20;;;13.80;67.50;;;;;;1479342;40;20040;-70
2021/05/23 05:14:00;;;;;;;4.15;2.05;;;13.80;67.40;;;;;;1479567;40;20032;-69
2021/05/23 05:15:21;;;;;;;2.60;1.98;;;13.80;67.30;;;;;;1479674;40;20029;-70
2021/05/23 05:16:42;;;;;;;3.40;2.20;;;13.80;67.20;;;;;;1482333;40;20041;-68
2021/05/23 05:18:03;;;;;;;5.20;2.17;;;13.80;66.90;;;;;;1478280;40;20033;-68
2021/05/23 05:19:24;;;;;;;3.35;2.25;;;13.70;66.90;;;;;;1480664;40;20277;-67
2021/05/23 05:20:45;;;;;;;2.72;1.75;;;13.70;66.80;;;;;;1478526;40;20039;-67
2021/05/23 05:22:07;;;;;;;3.53;1.70;;;13.70;67.00;;;;;;1480967;40;20043;-69
2021/05/23 05:23:28;;;;;;;3.50;2.20;;;13.70;67.10;;;;;;1478518;40;20355;-67
2021/05/23 05:24:49;;;;;;;2.42;1.85;;;13.70;67.00;;;;;;1480756;40;20133;-67
2021/05/23 05:26:10;;;;;;;5.88;1.77;;;13.70;67.00;;;;;;1477194;40;20055;-68
2021/05/23 05:27:30;;;;;;;5.07;2.30;;;13.70;67.00;;;;;;1480336;40;20045;-67
2021/05/23 05:28:51;;;;;;;6.40;2.15;;;13.70;67.00;;;;;;1479879;40;20076;-67
2021/05/23 05:30:13;;;;;;;3.20;1.70;;;13.60;66.90;;;;;;1477794;40;20111;-67
2021/05/23 05:31:34;;;;;;;2.17;1.90;;;13.70;67.10;;;;;;1478544;40;20033;-69
2021/05/23 05:32:55;;;;;;;3.47;2.10;;;13.60;66.90;;;;;;1478154;40;20044;-67
2021/05/23 05:34:16;;;;;;;5.18;2.40;;;13.60;67.00;;;;;;1479394;40;20034;-67
2021/05/23 05:35:37;;;;;;;3.00;2.35;;;13.60;67.00;;;;;;1479297;40;20021;-68
2021/05/23 05:36:58;;;;;;;3.17;2.17;;;13.60;67.20;;;;;;1480194;40;20088;-67
2021/05/23 05:38:19;;;;;;;3.35;2.40;;;13.60;67.10;;;;;;1480662;40;20029;-67
2021/05/23 05:39:40;;;;;;;2.53;2.30;;;13.60;67.20;;;;;;1482380;40;20040;-67
2021/05/23 05:41:02;;;;;;;3.78;2.60;;;13.60;67.10;;;;;;1480521;40;20044;-67
2021/05/23 05:42:23;;;;;;;3.50;2.50;;;13.60;67.20;;;;;;1480511;40;20032;-67
2021/05/23 05:43:43;;;;;;;6.93;2.70;;;13.60;67.20;;;;;;1478782;40;20365;-67
2021/05/23 05:45:05;;;;;;;3.47;2.20;;;13.60;67.30;;;;;;1481326;40;20130;-67
2021/05/23 05:46:26;;;;;;;2.95;2.30;;;13.50;67.30;;;;;;1480846;40;20050;-67
2021/05/23 05:47:47;;;;;;;4.70;2.20;;;13.50;67.40;;;;;;1479671;40;20029;-67
2021/05/23 05:49:08;;;;;;;4.47;2.30;;;13.50;67.50;;;;;;1479313;40;20021;-67
2021/05/23 05:50:29;;;;;;;3.83;2.90;;;13.50;67.60;;;;;;1479027;40;20029;-66
2021/05/23 05:51:50;;;;;;;4.15;2.60;;;13.50;67.60;;;;;;1480040;40;20269;-67
2021/05/23 05:53:11;;;;;;;3.75;2.50;;;13.50;67.60;;;;;;1480620;40;20047;-66
2021/05/23 05:54:33;;;;;;;3.42;2.42;;;13.50;67.70;;;;;;1480612;40;20353;-68
2021/05/23 05:55:54;;;;;;;3.80;2.47;;;13.50;67.70;;;;;;1477476;40;20137;-66
2021/05/23 05:57:15;;;;;;;3.55;2.33;;;13.50;67.80;;;;;;1481193;40;20048;-68
2021/05/23 05:58:36;;;;;;;6.55;3.03;;;13.50;67.70;;;;;;1477497;40;20021;-68
2021/05/23 05:59:57;;;;;;;4.68;2.58;;;13.50;67.70;;;;;;1478034;40;20047;-67
2021/05/23 06:01:18;;;;;;;6.40;3.28;;;13.50;67.60;;;;;;1480440;40;20029;-67
2021/05/23 06:02:39;;;;;;;5.88;2.45;;;13.50;67.50;;;;;;1477582;40;20052;-67
2021/05/23 06:04:00;;;;;;;7.95;3.20;;;13.50;67.50;;;;;;1479963;40;20473;-68
2021/05/23 06:05:21;;;;;;;6.80;3.20;;;13.50;67.50;;;;;;1478578;40;20029;-67
2021/05/23 06:06:42;;;;;;;5.20;2.90;;;13.50;67.40;;;;;;1481389;40;20090;-69
2021/05/23 06:08:03;;;;;;;4.28;2.38;;;13.50;67.20;;;;;;1479965;40;20028;-69
2021/05/23 06:09:24;;;;;;;6.28;2.65;;;13.50;67.20;;;;;;1480634;40;20355;-67
2021/05/23 06:10:45;;;;;;;4.22;2.50;;;13.50;67.20;;;;;;1479414;40;20076;-68
2021/05/23 06:12:07;;;;;;;4.18;2.45;;;13.50;67.20;;;;;;1480845;40;20028;-68
2021/05/23 06:13:28;;;;;;;4.75;2.90;;;13.50;67.10;;;;;;1480939;40;20044;-69
2021/05/23 06:14:48;;;;;;;6.88;2.67;;;13.50;67.10;;;;;;1479507;40;20061;-58
2021/05/23 06:16:09;;;;;;;5.95;2.58;;;13.50;67.00;;;;;;1480075;40;20424;-52
2021/05/23 06:17:30;;;;;;;5.15;2.33;;;13.50;67.00;;;;;;1479384;40;20026;-57
2021/05/23 06:18:51;;;;;;;4.82;2.78;;;13.50;67.00;;;;;;1479070;40;20021;-56
2021/05/23 06:20:13;;;;;;;3.08;2.40;;;13.50;67.70;;;;;;1479428;40;20388;-55
2021/05/23 06:21:34;;;;;;;4.50;2.90;;;13.50;66.80;;;;;;1479633;40;20047;-54
2021/05/23 06:22:55;;;;;;;9.02;3.22;;;13.50;66.60;;;;;;1479010;40;20553;-57
2021/05/23 06:24:17;;;;;;;5.07;2.55;;;13.40;66.50;;;;;;1481092;40;20052;-58
2021/05/23 06:25:37;;;;;;;5.80;2.60;;;13.40;66.60;;;;;;1479736;40;20376;-57
2021/05/23 06:26:58;;;;;;;4.97;2.50;;;13.40;66.60;;;;;;1479426;40;20047;-58
2021/05/23 06:28:19;;;;;;;4.72;2.42;;;13.50;66.90;;;;;;1479907;40;21492;-57
2021/05/23 06:29:40;;;;;;;5.47;2.55;;;13.50;67.00;;;;;;1478007;40;20033;-59
2021/05/23 06:31:01;;;;;;;5.07;2.70;;;13.50;67.00;;;;;;1478719;40;20025;-57
2021/05/23 06:32:22;;;;;;;5.63;2.47;;;13.50;66.70;;;;;;1479351;40;20025;-56
2021/05/23 06:33:43;;;;;;;7.47;2.75;;;13.50;66.70;;;;;;1479161;40;20044;-54
2021/05/23 06:35:04;;;;;;;6.80;2.67;;;13.50;66.60;;;;;;1479091;40;20379;-55
2021/05/23 06:36:25;;;;;;;5.57;2.90;;;13.50;66.70;;;;;;1478623;40;20057;-58
2021/05/23 06:37:46;;;;;;;4.65;2.60;;;13.60;66.60;;;;;;1478951;40;20053;-56
2021/05/23 06:39:08;;;;;;;5.85;2.80;;;13.60;66.50;;;;;;1478847;40;20034;-59
2021/05/23 06:40:29;;;;;;;4.65;2.45;;;13.60;66.10;;;;;;1478326;40;20033;-55
2021/05/23 06:41:50;;;;;;;11.57;2.65;;;13.60;66.00;;;;;;1478183;40;20122;-58
2021/05/23 06:43:11;;;;;;;3.28;2.08;;;13.60;66.00;;;;;;1480215;40;20027;-58
2021/05/23 06:44:32;;;;;;;4.93;2.28;;;13.70;66.00;;;;;;1477905;40;20377;-59
2021/05/23 06:45:54;;;;;;;4.55;2.10;;;13.70;65.90;;;;;;1479197;40;20041;-59
2021/05/23 06:47:15;;;;;;;9.07;2.40;;;13.70;65.90;;;;;;1479683;40;20122;-59
2021/05/23 06:48:36;;;;;;;4.60;2.00;;;13.80;65.90;;;;;;1480460;40;20025;-59
2021/05/23 06:49:57;;;;;;;4.47;2.00;;;13.80;65.70;;;;;;1479206;40;20130;-59
2021/05/23 06:51:18;;;;;;;6.57;2.45;;;13.80;65.70;;;;;;1480416;40;20031;-57
2021/05/23 06:52:39;;;;;;;6.35;2.53;;;13.90;65.50;;;;;;1478997;40;20047;-59
2021/05/23 06:54:00;;;;;;;4.00;1.80;;;13.90;64.80;;;;;;1477730;40;20037;-58
2021/05/23 06:55:21;;;;;;;4.43;2.10;;;13.90;64.60;;;;;;1481019;40;20055;-59
2021/05/23 06:56:42;;;;;;;4.20;2.67;;;14.00;64.70;;;;;;1478963;40;20033;-59
2021/05/23 06:58:03;;;;;;;5.53;2.40;;;14.00;64.60;;;;;;1480981;40;20039;-59
2021/05/23 06:59:24;;;;;;;6.32;1.90;;;14.00;64.50;;;;;;1481062;40;20057;-59
2021/05/23 07:00:44;;;;;;;5.35;1.85;;;14.00;64.30;;;;;;1482306;40;20033;-58
2021/05/23 07:02:06;;;;;;;4.47;2.22;;;14.00;63.90;;;;;;1478363;40;20115;-59
2021/05/23 07:03:27;;;;;;;5.10;2.05;;;14.10;63.90;;;;;;1478184;40;20392;-59
2021/05/23 07:04:48;;;;;;;5.85;2.40;;;14.10;63.70;;;;;;1480334;40;20043;-59
2021/05/23 07:06:09;;;;;;;4.47;1.40;;;14.10;63.20;;;;;;1478985;40;20033;-58
2021/05/23 07:07:31;;;;;;;6.10;2.10;;;14.10;63.00;;;;;;1479589;40;20062;-59